Time;durP1;ratioP1;P1;durP2;ratioP2;P2;SDS_P1;SDS_P2;PMS_P1;PMS_P2;Temp;Humidity;BMP_temperature;BMP_pressure;BME280_temperature;BME280_humidity;BME280_pressure;Samples;Min_cycle;Max_cycle;Signal;HPM_P1;HPM_P2
2023/07/05 00:01:29;;;;;;;;;;;;;;;26.12;41.51;96689.16;4210627;28;5669;-64
2023/07/05 00:03:32;;;;;;;;;;;;;;;26.12;41.53;96683.75;4215296;28;5696;-64
2023/07/05 00:05:37;;;;;;;;;;;;;;;26.11;41.83;96681.34;4215917;28;5601;-64
2023/07/05 00:07:40;;;;;;;;;;;;;;;26.11;41.79;96684.03;4221191;28;5621;-64
2023/07/05 00:09:43;;;;;;;;;;;;;;;26.10;41.75;96675.13;4204138;28;5656;-65
2023/07/05 00:11:46;;;;;;;;;;;;;;;26.10;41.72;96679.72;4202069;28;5709;-64
2023/07/05 00:13:49;;;;;;;;;;;;;;;26.09;41.73;96678.94;4217445;28;5788;-65
2023/07/05 00:15:52;;;;;;;;;;;;;;;26.05;41.52;96677.91;4202926;28;5763;-65
2023/07/05 00:17:56;;;;;;;;;;;;;;;26.02;41.44;96686.63;4201588;28;5680;-65
2023/07/05 00:19:58;;;;;;;;;;;;;;;25.96;41.61;96673.47;4210410;28;5708;-65
2023/07/05 00:22:03;;;;;;;;;;;;;;;25.91;41.55;96681.66;4218717;28;5602;-65
2023/07/05 00:24:06;;;;;;;;;;;;;;;25.88;41.58;96685.75;4212138;28;5609;-65
2023/07/05 00:26:09;;;;;;;;;;;;;;;25.88;41.84;96688.47;4220204;28;5842;-65
2023/07/05 00:28:12;;;;;;;;;;;;;;;25.90;41.99;96697.09;4231249;28;5685;-65
2023/07/05 00:30:16;;;;;;;;;;;;;;;25.91;41.54;96701.41;4210894;28;5721;-64
2023/07/05 00:32:19;;;;;;;;;;;;;;;25.94;41.90;96697.31;4212792;28;5664;-65
2023/07/05 00:34:22;;;;;;;;;;;;;;;25.92;41.48;96692.19;4208491;28;5621;-65
2023/07/05 00:36:25;;;;;;;;;;;;;;;25.92;41.84;96689.47;4210510;28;5657;-65
2023/07/05 00:38:29;;;;;;;;;;;;;;;25.92;41.88;96694.88;4201317;28;5772;-65
2023/07/05 00:40:32;;;;;;;;;;;;;;;25.91;41.59;96692.47;4201628;28;5794;-65
2023/07/05 00:42:35;;;;;;;;;;;;;;;25.89;42.14;96692.78;4201565;28;5706;-65
2023/07/05 00:44:37;;;;;;;;;;;;;;;25.86;41.92;96692.56;4207275;28;5680;-65
2023/07/05 00:46:46;;;;;;;;;;;;;;;25.88;41.72;96698.50;4214125;28;5894;-65
2023/07/05 00:48:54;;;;;;;;;;;;;;;25.90;42.24;96709.81;4210010;28;5617;-63
2023/07/05 00:50:59;;;;;;;;;;;;;;;25.90;42.05;96707.13;4235120;28;5087;-64
2023/07/05 00:53:03;;;;;;;;;;;;;;;25.91;42.23;96714.94;4209630;28;5697;-64
2023/07/05 00:55:09;;;;;;;;;;;;;;;25.90;42.01;96712.53;4216780;28;5721;-64
2023/07/05 00:57:17;;;;;;;;;;;;;;;25.87;42.15;96703.09;4201513;28;5774;-64
2023/07/05 00:59:21;;;;;;;;;;;;;;;25.89;41.87;96706.31;4209884;28;5724;-64
2023/07/05 01:01:25;;;;;;;;;;;;;;;25.87;42.36;96716.63;4201286;28;6362;-64
2023/07/05 01:03:29;;;;;;;;;;;;;;;25.88;42.16;96720.97;4205458;28;5609;-63
2023/07/05 01:05:32;;;;;;;;;;;;;;;25.86;42.09;96704.19;4214134;28;5621;-64
2023/07/05 01:07:36;;;;;;;;;;;;;;;25.88;42.27;96709.31;4204008;28;6374;-64
2023/07/05 01:09:38;;;;;;;;;;;;;;;25.87;42.06;96708.50;4228756;28;5605;-63
2023/07/05 01:11:53;;;;;;;;;;;;;;;25.88;42.10;96706.63;4220097;28;5613;-64
2023/07/05 01:14:01;;;;;;;;;;;;;;;25.88;42.10;96709.31;4217939;28;5736;-64
2023/07/05 01:16:22;;;;;;;;;;;;;;;25.87;42.57;96716.63;4217190;28;5624;-64
2023/07/05 01:18:31;;;;;;;;;;;;;;;25.89;42.30;96705.50;4209452;28;5702;-63
2023/07/05 01:20:42;;;;;;;;;;;;;;;25.90;42.31;96701.69;4219098;28;5912;-63
2023/07/05 01:23:16;;;;;;;;;;;;;;;25.89;42.34;96703.59;4225973;28;6365;-63
2023/07/05 01:25:41;;;;;;;;;;;;;;;25.89;42.59;96706.31;4211192;28;5837;-63
2023/07/05 01:28:19;;;;;;;;;;;;;;;25.88;42.56;96710.13;4204731;28;6440;-64
2023/07/05 01:31:01;;;;;;;;;;;;;;;25.88;42.57;96709.31;4204326;28;6434;-64
2023/07/05 01:33:08;;;;;;;;;;;;;;;25.88;42.73;96715.53;4209567;28;5676;-64
2023/07/05 01:35:16;;;;;;;;;;;;;;;25.87;42.75;96703.09;4211259;28;5656;-65
2023/07/05 01:37:36;;;;;;;;;;;;;;;25.87;42.60;96713.94;4228165;28;5698;-64
2023/07/05 01:39:39;;;;;;;;;;;;;;;25.89;42.58;96711.72;4220463;28;5601;-64
2023/07/05 01:41:43;;;;;;;;;;;;;;;25.90;42.65;96718.75;4228267;28;5640;-64
2023/07/05 01:43:46;;;;;;;;;;;;;;;25.88;42.68;96720.97;4209146;28;5617;-64
2023/07/05 01:46:10;;;;;;;;;;;;;;;25.88;42.87;96714.75;4218691;28;5702;-64
2023/07/05 01:48:24;;;;;;;;;;;;;;;25.88;43.01;96720.97;4208997;28;5712;-63
2023/07/05 01:50:30;;;;;;;;;;;;;;;25.90;43.07;96713.34;4218146;28;5661;-64
2023/07/05 01:52:40;;;;;;;;;;;;;;;25.89;42.94;96711.72;4214407;28;5613;-64
2023/07/05 01:54:49;;;;;;;;;;;;;;;25.91;43.26;96720.38;4217256;28;5724;-64
2023/07/05 01:56:58;;;;;;;;;;;;;;;25.90;43.02;96707.91;4225381;28;5063;-64
2023/07/05 01:59:04;;;;;;;;;;;;;;;25.90;43.34;96717.94;4225721;28;5609;-64
2023/07/05 02:01:10;;;;;;;;;;;;;;;25.91;43.51;96714.94;4224565;28;5632;-64
2023/07/05 02:03:17;;;;;;;;;;;;;;;25.91;43.15;96714.16;4222289;28;6410;-65
2023/07/05 02:05:22;;;;;;;;;;;;;;;25.91;43.22;96720.38;4217179;28;5649;-65
2023/07/05 02:07:26;;;;;;;;;;;;;;;25.92;43.55;96716.56;4200469;28;5747;-65
2023/07/05 02:09:29;;;;;;;;;;;;;;;25.91;43.29;96714.94;4200171;28;5874;-64
2023/07/05 02:11:32;;;;;;;;;;;;;;;25.89;43.25;96717.16;4213369;28;5617;-64
2023/07/05 02:13:34;;;;;;;;;;;;;;;25.89;43.52;96721.75;4219329;28;5590;-64
2023/07/05 02:15:38;;;;;;;;;;;;;;;25.90;43.50;96718.75;4214202;28;5664;-64
2023/07/05 02:17:41;;;;;;;;;;;;;;;25.86;43.72;96720.44;4214508;28;5621;-65
2023/07/05 02:19:46;;;;;;;;;;;;;;;25.86;43.39;96728.56;4208755;28;5613;-65
2023/07/05 02:21:49;;;;;;;;;;;;;;;25.84;43.33;96719.94;4201528;28;5724;-65
2023/07/05 02:23:52;;;;;;;;;;;;;;;25.85;43.65;96710.72;4200042;28;5705;-64
2023/07/05 02:26:03;;;;;;;;;;;;;;;25.85;43.56;96718.03;4208666;28;5675;-64
2023/07/05 02:28:06;;;;;;;;;;;;;;;25.87;43.38;96726.66;4220425;28;6299;-64
2023/07/05 02:30:13;;;;;;;;;;;;;;;25.87;43.47;96724.75;4220832;28;5676;-64
2023/07/05 02:32:15;;;;;;;;;;;;;;;25.86;43.84;96723.16;4222901;28;5079;-64
2023/07/05 02:34:18;;;;;;;;;;;;;;;25.86;43.70;96728.56;4209160;28;5767;-63
2023/07/05 02:36:23;;;;;;;;;;;;;;;25.86;43.67;96734.00;4203294;28;5721;-63
2023/07/05 02:38:25;;;;;;;;;;;;;;;25.87;43.90;96734.78;4215427;28;6417;-63
2023/07/05 02:40:28;;;;;;;;;;;;;;;25.88;43.42;96730.97;4216180;28;5657;-64
2023/07/05 02:42:31;;;;;;;;;;;;;;;25.88;43.78;96720.97;4208410;28;5675;-64
2023/07/05 02:44:34;;;;;;;;;;;;;;;25.88;43.66;96725.56;4206593;28;5698;-63
2023/07/05 02:46:37;;;;;;;;;;;;;;;25.87;43.72;96723.97;4213413;28;6306;-63
2023/07/05 02:48:40;;;;;;;;;;;;;;;25.86;43.63;96720.44;4205832;28;5698;-64
2023/07/05 02:50:43;;;;;;;;;;;;;;;25.83;43.38;96726.47;4203527;28;5752;-63
2023/07/05 02:52:48;;;;;;;;;;;;;;;25.83;43.57;96723.75;4233666;28;5610;-64
2023/07/05 02:54:51;;;;;;;;;;;;;;;25.84;43.34;96728.06;4229274;28;5625;-64
2023/07/05 02:56:54;;;;;;;;;;;;;;;25.84;43.63;96722.66;4201960;28;5655;-63
2023/07/05 02:58:56;;;;;;;;;;;;;;;25.83;43.50;96723.75;4219923;28;5632;-64
2023/07/05 03:00:59;;;;;;;;;;;;;;;25.81;43.47;96715.09;4211343;28;5100;-64
2023/07/05 03:03:02;;;;;;;;;;;;;;;25.82;43.84;96719.41;4215834;28;5617;-64
2023/07/05 03:05:09;;;;;;;;;;;;;;;25.78;43.84;96723.81;4211785;28;5681;-64
2023/07/05 03:07:12;;;;;;;;;;;;;;;25.79;43.89;96717.28;4219611;28;5772;-64
2023/07/05 03:09:18;;;;;;;;;;;;;;;25.78;43.82;96721.09;4217396;28;6512;-64
2023/07/05 03:11:20;;;;;;;;;;;;;;;25.78;43.80;96721.09;4214669;28;5582;-65
2023/07/05 03:13:26;;;;;;;;;;;;;;;25.78;43.92;96710.25;4229720;28;5684;-64
2023/07/05 03:15:29;;;;;;;;;;;;;;;25.82;43.91;96727.53;4207373;28;5618;-65
2023/07/05 03:17:33;;;;;;;;;;;;;;;25.82;43.89;96728.38;4224368;28;5593;-65
2023/07/05 03:19:36;;;;;;;;;;;;;;;25.82;44.00;96728.38;4234821;28;5590;-65
2023/07/05 03:21:39;;;;;;;;;;;;;;;25.81;44.29;96721.31;4214033;28;5083;-65
2023/07/05 03:23:42;;;;;;;;;;;;;;;25.83;44.34;96718.34;4232097;28;5598;-65
2023/07/05 03:25:56;;;;;;;;;;;;;;;25.80;44.23;96727.03;4206127;28;5933;-64
2023/07/05 03:27:59;;;;;;;;;;;;;;;25.78;44.44;96735.44;4211697;28;5651;-64
2023/07/05 03:30:02;;;;;;;;;;;;;;;25.79;44.70;96733.53;4222645;28;5614;-64
2023/07/05 03:32:07;;;;;;;;;;;;;;;25.77;44.69;96735.72;4218523;28;5621;-65
2023/07/05 03:34:09;;;;;;;;;;;;;;;25.76;44.88;96734.94;4204817;28;5697;-65
2023/07/05 03:36:14;;;;;;;;;;;;;;;25.77;44.61;96743.84;4218607;28;5602;-65
2023/07/05 03:38:17;;;;;;;;;;;;;;;25.75;44.68;96732.53;4209175;28;5739;-65
2023/07/05 03:40:20;;;;;;;;;;;;;;;25.76;45.03;96740.34;4207670;28;5935;-65
2023/07/05 03:42:25;;;;;;;;;;;;;;;25.74;44.89;96742.53;4212708;28;5777;-65
2023/07/05 03:44:27;;;;;;;;;;;;;;;25.72;44.71;96739.31;4215145;28;6482;-65
2023/07/05 03:46:30;;;;;;;;;;;;;;;25.72;44.57;96739.31;4211547;28;5605;-65
2023/07/05 03:48:36;;;;;;;;;;;;;;;25.73;44.85;96742.84;4227377;28;5606;-65
2023/07/05 03:50:41;;;;;;;;;;;;;;;25.74;44.79;96741.75;4230038;28;5628;-65
2023/07/05 03:52:44;;;;;;;;;;;;;;;25.76;44.98;96750.38;4217160;28;5614;-65
2023/07/05 03:54:47;;;;;;;;;;;;;;;25.75;45.13;96749.56;4210438;28;5822;-65
2023/07/05 03:56:50;;;;;;;;;;;;;;;25.75;44.91;96754.19;4213416;28;5755;-65
2023/07/05 03:58:54;;;;;;;;;;;;;;;25.74;44.70;96750.66;4218539;28;5624;-64
2023/07/05 04:01:04;;;;;;;;;;;;;;;25.71;44.66;96756.66;4222841;28;5676;-65
2023/07/05 04:03:07;;;;;;;;;;;;;;;25.70;44.77;96759.66;4217537;28;5613;-64
2023/07/05 04:05:10;;;;;;;;;;;;;;;25.70;44.85;96751.53;4203551;28;5852;-65
2023/07/05 04:07:13;;;;;;;;;;;;;;;25.69;45.25;96750.72;4208193;28;5682;-65
2023/07/05 04:09:16;;;;;;;;;;;;;;;25.70;45.06;96751.53;4218551;28;5817;-65
2023/07/05 04:11:19;;;;;;;;;;;;;;;25.68;44.81;96748.28;4213076;28;5725;-64
2023/07/05 04:13:22;;;;;;;;;;;;;;;25.68;45.28;96750.97;4207336;28;5690;-64
2023/07/05 04:15:26;;;;;;;;;;;;;;;25.69;44.87;96761.53;4209706;28;5730;-65
2023/07/05 04:17:30;;;;;;;;;;;;;;;25.68;44.99;96761.81;4209867;28;5682;-64
2023/07/05 04:19:33;;;;;;;;;;;;;;;25.69;45.09;96756.13;4207297;28;5633;-64
2023/07/05 04:21:36;;;;;;;;;;;;;;;25.70;45.23;96762.34;4219062;28;5613;-65
2023/07/05 04:23:41;;;;;;;;;;;;;;;25.69;45.36;96766.13;4216141;28;5594;-65
2023/07/05 04:25:43;;;;;;;;;;;;;;;25.68;45.15;96767.22;4206143;28;5773;-65
2023/07/05 04:27:46;;;;;;;;;;;;;;;25.67;45.39;96763.72;4208522;28;5820;-65
2023/07/05 04:29:49;;;;;;;;;;;;;;;25.65;45.49;96760.50;4234343;28;5602;-64
2023/07/05 04:31:53;;;;;;;;;;;;;;;25.65;45.19;96765.91;4218751;28;5859;-64
2023/07/05 04:33:57;;;;;;;;;;;;;;;25.66;45.38;96755.88;4235516;28;5586;-65
2023/07/05 04:36:02;;;;;;;;;;;;;;;25.66;45.34;96761.31;4201190;28;5660;-64
2023/07/05 04:38:08;;;;;;;;;;;;;;;25.67;45.63;96757.50;4217153;28;5608;-64
2023/07/05 04:40:12;;;;;;;;;;;;;;;25.67;45.53;96765.63;4214721;28;5605;-64
2023/07/05 04:42:15;;;;;;;;;;;;;;;25.68;45.64;96761.81;4223770;28;5644;-65
2023/07/05 04:44:17;;;;;;;;;;;;;;;25.69;45.20;96766.13;4220715;28;5609;-65
2023/07/05 04:46:21;;;;;;;;;;;;;;;25.71;45.37;96763.97;4207388;28;5663;-64
2023/07/05 04:48:29;;;;;;;;;;;;;;;25.71;45.63;96758.53;4214532;28;5629;-65
2023/07/05 04:50:32;;;;;;;;;;;;;;;25.72;45.68;96763.69;4220361;28;5715;-65
2023/07/05 04:52:35;;;;;;;;;;;;;;;25.72;45.38;96760.19;4212857;28;5686;-64
2023/07/05 04:54:38;;;;;;;;;;;;;;;25.71;45.57;96747.72;4212658;28;5583;-65
2023/07/05 04:56:41;;;;;;;;;;;;;;;25.70;45.70;96756.94;4221896;28;5811;-64
2023/07/05 04:58:44;;;;;;;;;;;;;;;25.66;45.55;96751.28;4201544;28;5858;-64
2023/07/05 05:00:49;;;;;;;;;;;;;;;25.65;45.76;96743.44;4223874;28;5777;-63
2023/07/05 05:02:52;;;;;;;;;;;;;;;25.64;45.92;96755.38;4215005;28;5695;-64
2023/07/05 05:04:57;;;;;;;;;;;;;;;25.63;45.42;96751.88;4216198;28;5731;-64
2023/07/05 05:06:59;;;;;;;;;;;;;;;25.65;45.59;96748.88;4209264;28;5705;-64
2023/07/05 05:09:02;;;;;;;;;;;;;;;25.67;45.35;96760.19;4217613;28;5618;-64
2023/07/05 05:11:06;;;;;;;;;;;;;;;25.70;45.39;96756.94;4191372;28;5708;-64
2023/07/05 05:13:09;;;;;;;;;;;;;;;25.70;45.48;96759.66;4199694;28;5655;-64
2023/07/05 05:15:12;;;;;;;;;;;;;;;25.67;45.31;96754.78;4209544;28;5648;-63
2023/07/05 05:17:15;;;;;;;;;;;;;;;25.71;45.31;96763.97;4211741;28;5621;-63
2023/07/05 05:19:19;;;;;;;;;;;;;;;25.73;45.56;96759.09;4221457;28;5600;-64
2023/07/05 05:21:24;;;;;;;;;;;;;;;25.75;45.85;96765.00;4217771;28;6322;-64
2023/07/05 05:23:27;;;;;;;;;;;;;;;25.78;45.37;96767.94;4225616;28;5672;-64
2023/07/05 05:25:30;;;;;;;;;;;;;;;25.79;45.73;96771.44;4217660;28;5752;-63
2023/07/05 05:27:33;;;;;;;;;;;;;;;25.81;45.65;96771.94;4217744;28;5597;-63
2023/07/05 05:29:36;;;;;;;;;;;;;;;25.82;45.48;96781.69;4208698;28;5758;-64
2023/07/05 05:31:39;;;;;;;;;;;;;;;25.84;45.95;96784.94;4209584;28;5925;-64
2023/07/05 05:33:42;;;;;;;;;;;;;;;25.85;45.55;96783.84;4220119;28;5829;-64
2023/07/05 05:35:49;;;;;;;;;;;;;;;25.85;45.51;96786.53;4217457;28;5747;-64
2023/07/05 05:37:53;;;;;;;;;;;;;;;25.82;45.97;96789.81;4225843;28;5621;-64
2023/07/05 05:39:56;;;;;;;;;;;;;;;25.81;45.95;96788.19;4217277;28;5696;-64
2023/07/05 05:41:59;;;;;;;;;;;;;;;25.76;45.79;96791.00;4200989;28;5745;-64
2023/07/05 05:44:02;;;;;;;;;;;;;;;25.75;45.82;96784.75;4214858;28;7402;-65
2023/07/05 05:46:05;;;;;;;;;;;;;;;25.72;45.38;96792.66;4206603;28;5664;-65
2023/07/05 05:48:07;;;;;;;;;;;;;;;25.69;45.50;96793.19;4201992;28;5724;-64
2023/07/05 05:50:11;;;;;;;;;;;;;;;25.70;45.26;96803.75;4207167;28;5860;-63
2023/07/05 05:52:14;;;;;;;;;;;;;;;25.69;45.44;96802.16;4208633;28;5698;-64
2023/07/05 05:54:18;;;;;;;;;;;;;;;25.67;45.60;96790.78;4220786;28;6999;-64
2023/07/05 05:56:21;;;;;;;;;;;;;;;25.68;45.47;96791.59;4208912;28;5098;-64
2023/07/05 05:58:25;;;;;;;;;;;;;;;25.68;45.54;96802.41;4210420;28;5783;-64
2023/07/05 06:00:28;;;;;;;;;;;;;;;25.68;45.53;96797.81;4215504;28;5605;-64
2023/07/05 06:02:32;;;;;;;;;;;;;;;25.69;45.52;96804.03;4215491;28;5758;-65
2023/07/05 06:04:35;;;;;;;;;;;;;;;25.70;45.39;96805.66;4200299;28;5659;-64
2023/07/05 06:06:38;;;;;;;;;;;;;;;25.68;45.40;96810.53;4213546;28;5726;-64
2023/07/05 06:08:41;;;;;;;;;;;;;;;25.67;45.37;96817.06;4208672;28;5644;-64
2023/07/05 06:10:46;;;;;;;;;;;;;;;25.65;45.31;96806.53;4210342;28;5668;-64
2023/07/05 06:12:49;;;;;;;;;;;;;;;25.64;45.33;96818.44;4215628;28;5813;-64
2023/07/05 06:14:52;;;;;;;;;;;;;;;25.65;45.55;96821.94;4202273;28;6771;-64
2023/07/05 06:16:55;;;;;;;;;;;;;;;25.64;45.31;96829.28;4212569;28;7887;-64
2023/07/05 06:18:58;;;;;;;;;;;;;;;25.66;45.26;96828.97;4208276;28;5593;-64
2023/07/05 06:21:01;;;;;;;;;;;;;;;25.65;45.37;96832.78;4222949;28;5594;-64
2023/07/05 06:23:03;;;;;;;;;;;;;;;25.63;45.57;96835.78;4208127;28;5608;-64
2023/07/05 06:25:10;;;;;;;;;;;;;;;25.65;45.40;96840.91;4211008;28;5624;-64
2023/07/05 06:27:16;;;;;;;;;;;;;;;25.63;45.37;96843.91;4212276;28;5616;-64
2023/07/05 06:29:19;;;;;;;;;;;;;;;25.62;45.50;96849.63;4212862;28;5620;-64
2023/07/05 06:31:22;;;;;;;;;;;;;;;25.61;45.43;96856.94;4218215;28;6303;-64
2023/07/05 06:33:24;;;;;;;;;;;;;;;25.57;45.09;96855.06;4229840;28;5605;-63
2023/07/05 06:35:28;;;;;;;;;;;;;;;25.49;45.13;96851.91;4216733;28;6032;-63
2023/07/05 06:37:31;;;;;;;;;;;;;;;25.45;45.31;96847.34;4203296;28;5710;-63
2023/07/05 06:39:33;;;;;;;;;;;;;;;25.32;45.48;96848.81;4216627;28;5664;-64
2023/07/05 06:41:36;;;;;;;;;;;;;;;25.28;45.79;96861.31;4218732;28;5594;-64
2023/07/05 06:43:41;;;;;;;;;;;;;;;25.27;45.55;96858.91;4214458;28;5685;-64
2023/07/05 06:45:47;;;;;;;;;;;;;;;25.31;45.48;96862.66;4208789;28;5771;-64
2023/07/05 06:47:51;;;;;;;;;;;;;;;25.31;45.76;96859.94;4211486;28;5616;-64
2023/07/05 06:49:53;;;;;;;;;;;;;;;25.29;45.88;96865.66;4210487;28;5779;-64
2023/07/05 06:51:56;;;;;;;;;;;;;;;25.27;45.98;96867.84;4224702;28;5614;-64
2023/07/05 06:53:59;;;;;;;;;;;;;;;25.30;45.78;96872.66;4218646;28;5836;-64
2023/07/05 06:56:02;;;;;;;;;;;;;;;25.32;45.80;96873.19;4205079;28;6475;-64
2023/07/05 06:58:05;;;;;;;;;;;;;;;25.36;45.92;96870.69;4216684;28;6694;-64
2023/07/05 07:00:12;;;;;;;;;;;;;;;25.37;45.59;96877.72;4206024;28;5665;-64
2023/07/05 07:02:15;;;;;;;;;;;;;;;25.36;46.07;96876.91;4200807;28;5779;-64
2023/07/05 07:04:18;;;;;;;;;;;;;;;25.38;45.86;96877.47;4209889;28;5624;-64
2023/07/05 07:06:21;;;;;;;;;;;;;;;25.38;45.66;96868.53;4228130;28;5616;-64
2023/07/05 07:08:28;;;;;;;;;;;;;;;25.36;45.71;96873.41;4213879;28;5624;-64
2023/07/05 07:10:31;;;;;;;;;;;;;;;25.32;46.13;96878.59;4213306;28;5612;-65
2023/07/05 07:12:34;;;;;;;;;;;;;;;25.30;46.08;96878.06;4216005;28;5696;-65
2023/07/05 07:14:37;;;;;;;;;;;;;;;25.31;46.26;96873.47;4215447;28;5602;-64
2023/07/05 07:16:41;;;;;;;;;;;;;;;25.31;45.91;96874.28;4215841;28;5765;-65
2023/07/05 07:18:46;;;;;;;;;;;;;;;25.35;45.75;96867.19;4212618;28;6013;-64
2023/07/05 07:20:52;;;;;;;;;;;;;;;25.36;45.56;96866.09;4219149;28;5787;-64
2023/07/05 07:22:56;;;;;;;;;;;;;;;25.40;45.65;96871.75;4217713;28;5738;-64
2023/07/05 07:24:59;;;;;;;;;;;;;;;25.43;45.65;96876.59;4211198;28;5608;-65
2023/07/05 07:27:06;;;;;;;;;;;;;;;25.41;45.88;96874.19;4227602;28;5628;-64
2023/07/05 07:29:10;;;;;;;;;;;;;;;25.38;45.64;96880.16;4210323;28;5747;-65
2023/07/05 07:31:15;;;;;;;;;;;;;;;25.38;45.99;96869.34;4218596;28;5835;-64
2023/07/05 07:33:19;;;;;;;;;;;;;;;25.41;45.61;96885.00;4215225;28;5873;-64
2023/07/05 07:35:22;;;;;;;;;;;;;;;25.40;45.93;96883.41;4210464;28;5818;-64
2023/07/05 07:37:26;;;;;;;;;;;;;;;25.36;46.16;96882.34;4218333;28;5657;-64
2023/07/05 07:39:29;;;;;;;;;;;;;;;25.40;45.85;96874.47;4213831;28;5792;-64
2023/07/05 07:41:35;;;;;;;;;;;;;;;25.44;45.61;96876.31;4210937;28;5660;-64
2023/07/05 07:43:38;;;;;;;;;;;;;;;25.50;45.85;96888.72;4216195;28;5825;-64
2023/07/05 07:45:40;;;;;;;;;;;;;;;25.51;45.84;96892.22;4209517;28;5737;-64
2023/07/05 07:47:44;;;;;;;;;;;;;;;25.53;45.75;96884.63;4219072;28;5657;-64
2023/07/05 07:49:49;;;;;;;;;;;;;;;25.56;45.55;96892.16;4221190;28;5733;-64
2023/07/05 07:51:52;;;;;;;;;;;;;;;25.53;45.56;96890.84;4209092;28;5967;-73
2023/07/05 07:53:55;;;;;;;;;;;;;;;25.49;45.83;96889.00;4213550;28;5630;-74
2023/07/05 07:55:59;;;;;;;;;;;;;;;25.48;45.69;96888.19;4206115;28;5826;-74
2023/07/05 07:58:03;;;;;;;;;;;;;;;25.51;45.82;96887.63;4209271;28;5690;-74
2023/07/05 08:00:09;;;;;;;;;;;;;;;25.49;45.69;96895.22;4213272;28;5211;-75
2023/07/05 08:02:13;;;;;;;;;;;;;;;25.47;45.91;96891.16;4209131;28;5678;-75
2023/07/05 08:04:17;;;;;;;;;;;;;;;25.43;45.38;96890.13;4203582;28;5632;-77
2023/07/05 08:06:29;;;;;;;;;;;;;;;25.38;45.71;96896.41;4206758;28;5628;-75
2023/07/05 08:08:32;;;;;;;;;;;;;;;25.38;45.44;96893.69;4210134;28;5742;-75
2023/07/05 08:10:35;;;;;;;;;;;;;;;25.41;45.49;96889.63;4204977;28;5751;-77
2023/07/05 08:12:38;;;;;;;;;;;;;;;25.44;45.65;96900.66;4206456;28;5714;-75
2023/07/05 08:14:41;;;;;;;;;;;;;;;25.40;45.05;96907.75;4203010;28;5827;-74
2023/07/05 08:16:45;;;;;;;;;;;;;;;25.29;45.64;96908.13;4207859;28;7849;-75
2023/07/05 08:18:48;;;;;;;;;;;;;;;25.15;45.81;96907.97;4202961;28;5648;-75
2023/07/05 08:20:52;;;;;;;;;;;;;;;25.14;45.87;96899.06;4204599;28;5744;-74
2023/07/05 08:22:57;;;;;;;;;;;;;;;25.07;45.59;96901.28;4206133;28;5747;-77
2023/07/05 08:25:00;;;;;;;;;;;;;;;25.09;45.95;96901.00;4205665;28;5724;-74
2023/07/05 08:27:04;;;;;;;;;;;;;;;24.99;46.08;96893.72;4209865;28;5107;-73
2023/07/05 08:29:09;;;;;;;;;;;;;;;24.97;46.02;96902.13;4205752;28;5747;-74
2023/07/05 08:31:12;;;;;;;;;;;;;;;25.05;45.66;96905.38;4219594;28;6496;-73
2023/07/05 08:33:15;;;;;;;;;;;;;;;25.13;46.01;96907.44;4209414;28;5919;-72
2023/07/05 08:35:18;;;;;;;;;;;;;;;25.14;45.78;96900.94;4206689;28;5851;-73
2023/07/05 08:37:22;;;;;;;;;;;;;;;25.18;45.69;96907.41;4208350;28;5726;-71
2023/07/05 08:39:26;;;;;;;;;;;;;;;25.18;45.26;96910.13;4206503;28;7742;-74
2023/07/05 08:41:41;;;;;;;;;;;;;;;25.19;45.11;96912.53;4211710;28;5617;-73
2023/07/05 08:43:50;;;;;;;;;;;;;;;25.22;45.40;96913.84;4206832;28;5677;-70
2023/07/05 08:46:02;;;;;;;;;;;;;;;25.25;44.93;96916.00;4214343;28;5620;-71
2023/07/05 08:48:07;;;;;;;;;;;;;;;25.27;45.10;96913.81;4210181;28;5620;-70
2023/07/05 08:50:19;;;;;;;;;;;;;;;25.26;44.90;96923.03;4212226;28;5617;-71
2023/07/05 08:52:36;;;;;;;;;;;;;;;25.24;44.71;96922.50;4210517;28;5754;-72
2023/07/05 08:54:42;;;;;;;;;;;;;;;25.25;44.68;96924.09;4208068;28;5871;-72
2023/07/05 08:56:49;;;;;;;;;;;;;;;25.29;44.41;96925.16;4191635;28;5616;-72
2023/07/05 08:58:57;;;;;;;;;;;;;;;25.23;44.77;96931.69;4190676;28;5745;-74
2023/07/05 09:01:04;;;;;;;;;;;;;;;25.19;44.74;96933.38;4208349;28;5643;-73
2023/07/05 09:03:11;;;;;;;;;;;;;;;25.22;44.52;96932.78;4208607;28;5755;-71
2023/07/05 09:05:16;;;;;;;;;;;;;;;25.25;44.53;96919.50;4214831;28;5684;-88
2023/07/05 09:07:28;;;;;;;;;;;;;;;25.24;44.13;96928.72;4221704;28;5602;-72
2023/07/05 09:09:51;;;;;;;;;;;;;;;25.29;44.29;96932.47;4205606;28;5704;-71
2023/07/05 09:12:06;;;;;;;;;;;;;;;25.33;44.31;96937.03;4211907;28;5719;-71
2023/07/05 09:14:20;;;;;;;;;;;;;;;25.34;44.11;96944.06;4205203;28;5625;-77
2023/07/05 09:16:38;;;;;;;;;;;;;;;25.34;44.19;96951.38;4210655;28;5660;-71
2023/07/05 09:18:58;;;;;;;;;;;;;;;25.33;43.93;96950.56;4214935;28;5811;-75
2023/07/05 09:21:10;;;;;;;;;;;;;;;25.31;43.89;96955.44;4206509;28;5628;-72
2023/07/05 09:23:18;;;;;;;;;;;;;;;25.29;44.32;96956.84;4218495;28;5770;-71
2023/07/05 09:25:25;;;;;;;;;;;;;;;25.27;43.84;96959.81;4208187;28;5637;-70
2023/07/05 09:27:46;;;;;;;;;;;;;;;25.21;44.50;96947.41;4210387;28;5653;-68
2023/07/05 09:29:54;;;;;;;;;;;;;;;25.15;44.53;96970.19;4209912;28;5635;-71
2023/07/05 09:31:58;;;;;;;;;;;;;;;25.17;44.18;96965.31;4226015;28;5700;-73
2023/07/05 09:34:17;;;;;;;;;;;;;;;25.21;44.44;96966.34;4221344;28;5785;-73
2023/07/05 09:36:22;;;;;;;;;;;;;;;25.20;44.53;96970.16;4204636;28;5760;-72
2023/07/05 09:38:31;;;;;;;;;;;;;;;25.19;44.58;96971.25;4203163;28;5843;-71
2023/07/05 09:40:44;;;;;;;;;;;;;;;25.14;44.91;96977.50;4204836;28;5847;-69
2023/07/05 09:42:51;;;;;;;;;;;;;;;25.11;44.65;96988.88;4208942;28;5800;-71
2023/07/05 09:44:54;;;;;;;;;;;;;;;25.12;44.75;96992.38;4210425;28;5648;-73
2023/07/05 09:46:57;;;;;;;;;;;;;;;25.15;44.81;96997.25;4205525;28;5850;-72
2023/07/05 09:49:01;;;;;;;;;;;;;;;25.16;44.97;96996.16;4216777;28;5606;-73
2023/07/05 09:51:06;;;;;;;;;;;;;;;25.16;45.28;97001.56;4206536;28;5632;-75
2023/07/05 09:53:34;;;;;;;;;;;;;;;25.16;44.95;96996.97;4206962;28;5326;-75
2023/07/05 09:56:03;;;;;;;;;;;;;;;25.17;45.37;96998.59;4210339;28;5640;-71
2023/07/05 09:58:15;;;;;;;;;;;;;;;25.14;45.22;97001.84;4207160;28;5955;-69
2023/07/05 10:00:27;;;;;;;;;;;;;;;25.10;45.25;97002.69;4220660;28;5789;-72
2023/07/05 10:02:32;;;;;;;;;;;;;;;25.10;45.61;97006.19;4212062;28;5792;-73
2023/07/05 10:04:44;;;;;;;;;;;;;;;25.12;45.74;97005.91;4206809;28;6274;-73
2023/07/05 10:06:50;;;;;;;;;;;;;;;25.13;45.52;97002.91;4205948;28;5722;-73
2023/07/05 10:08:57;;;;;;;;;;;;;;;25.13;45.84;97002.91;4202269;28;5822;-73
2023/07/05 10:11:04;;;;;;;;;;;;;;;25.15;45.87;97000.75;4208418;28;5601;-74
2023/07/05 10:13:14;;;;;;;;;;;;;;;25.18;45.46;97000.19;4211499;28;5620;-74
2023/07/05 10:15:21;;;;;;;;;;;;;;;25.19;45.81;97001.00;4210627;28;5948;-73
2023/07/05 10:17:25;;;;;;;;;;;;;;;25.22;45.67;97005.84;4203628;28;6325;-74
2023/07/05 10:19:30;;;;;;;;;;;;;;;25.23;45.83;97004.75;4204069;28;5770;-73
2023/07/05 10:21:36;;;;;;;;;;;;;;;25.20;45.87;96997.22;4212827;28;5088;-74
2023/07/05 10:23:39;;;;;;;;;;;;;;;25.18;46.00;97007.50;4216854;28;5633;-74
2023/07/05 10:25:43;;;;;;;;;;;;;;;25.20;45.97;97003.41;4217446;28;5757;-73
2023/07/05 10:27:50;;;;;;;;;;;;;;;25.24;46.07;97003.66;4212439;28;5092;-73
2023/07/05 10:30:00;;;;;;;;;;;;;;;25.26;45.73;97001.50;4197891;28;5749;-74
2023/07/05 10:32:04;;;;;;;;;;;;;;;25.27;46.15;97008.53;4211947;28;5606;-74
2023/07/05 10:34:18;;;;;;;;;;;;;;;25.27;46.01;97003.13;4210302;28;5755;-73
2023/07/05 10:36:25;;;;;;;;;;;;;;;25.29;45.79;97003.63;4209413;28;5608;-74
2023/07/05 10:38:31;;;;;;;;;;;;;;;25.32;46.11;96997.66;4216206;28;5613;-74
2023/07/05 10:40:34;;;;;;;;;;;;;;;25.37;46.33;96999.50;4209812;28;5731;-74
2023/07/05 10:42:40;;;;;;;;;;;;;;;25.39;46.22;96992.72;4215979;28;5616;-74
2023/07/05 10:44:45;;;;;;;;;;;;;;;25.39;45.85;97003.56;4209925;28;5780;-73
2023/07/05 10:46:48;;;;;;;;;;;;;;;25.40;45.96;96999.75;4209660;28;5734;-73
2023/07/05 10:48:53;;;;;;;;;;;;;;;25.40;46.17;97002.47;4212427;28;6363;-74
2023/07/05 10:50:57;;;;;;;;;;;;;;;25.41;45.99;96992.44;4217412;28;5736;-74
2023/07/05 10:53:04;;;;;;;;;;;;;;;25.41;45.92;97001.38;4211090;28;6367;-74
2023/07/05 10:55:14;;;;;;;;;;;;;;;25.41;45.97;97009.50;4232239;28;5586;-73
2023/07/05 10:57:22;;;;;;;;;;;;;;;25.40;45.78;97013.28;4236555;28;5835;-74
2023/07/05 10:59:35;;;;;;;;;;;;;;;25.39;46.16;97021.69;4215611;28;5680;-74
2023/07/05 11:01:48;;;;;;;;;;;;;;;25.34;46.30;97019.00;4202636;28;5690;-73
2023/07/05 11:03:57;;;;;;;;;;;;;;;25.34;45.83;97022.53;4218795;28;5651;-73